createdAt,value
2022-10-16T00:01:44.567Z,16.80
2022-10-16T00:04:11.461Z,19.35
2022-10-16T00:06:38.871Z,18.05
2022-10-16T00:09:07.081Z,20.13
2022-10-16T00:11:40.531Z,20.80
2022-10-16T00:14:15.622Z,17.73
2022-10-16T00:16:43.043Z,17.67
2022-10-16T00:19:13.425Z,17.30
2022-10-16T00:21:40.438Z,13.93
2022-10-16T00:24:10.719Z,16.75
2022-10-16T00:26:39.777Z,15.18
2022-10-16T00:29:09.012Z,16.95
2022-10-16T00:31:36.500Z,18.67
2022-10-16T00:34:03.961Z,18.73
2022-10-16T00:36:31.652Z,16.75
2022-10-16T00:41:29.929Z,15.40
2022-10-16T00:44:23.767Z,14.40
2022-10-16T00:46:52.061Z,13.73
2022-10-16T00:49:22.219Z,15.18
2022-10-16T00:51:54.650Z,14.00
2022-10-16T00:54:33.185Z,14.23
2022-10-16T00:57:06.408Z,16.08
2022-10-16T00:59:43.346Z,12.20
2022-10-16T01:02:16.223Z,11.13
2022-10-16T01:04:51.184Z,12.07
2022-10-16T01:07:57.075Z,14.00
2022-10-16T01:10:45.186Z,14.00
2022-10-16T01:13:28.823Z,15.30
2022-10-16T01:16:14.583Z,12.70
2022-10-16T01:19:16.097Z,12.95
2022-10-16T01:21:53.204Z,10.68
2022-10-16T01:24:45.606Z,11.43
2022-10-16T01:27:31.854Z,11.60
2022-10-16T01:30:35.473Z,12.55
2022-10-16T01:33:18.119Z,12.65
2022-10-16T01:35:55.054Z,12.13
2022-10-16T01:38:38.981Z,14.23
2022-10-16T01:41:32.914Z,10.43
2022-10-16T01:44:21.673Z,9.97
2022-10-16T01:46:54.746Z,13.02
2022-10-16T01:49:30.704Z,9.35
2022-10-16T01:52:06.317Z,11.63
2022-10-16T01:54:38.980Z,14.90
2022-10-16T01:57:10.201Z,10.02
2022-10-16T01:59:48.070Z,12.68
2022-10-16T02:02:22.239Z,12.57
2022-10-16T02:07:23.632Z,13.02
2022-10-16T02:09:50.522Z,11.80
2022-10-16T02:12:28.220Z,15.35
2022-10-16T02:14:55.373Z,14.85
2022-10-16T02:17:22.715Z,12.93
2022-10-16T02:19:55.829Z,14.40
2022-10-16T02:22:41.347Z,11.57
2022-10-16T02:25:42.781Z,17.58
2022-10-16T02:28:45.994Z,13.88
2022-10-16T02:31:23.949Z,13.43
2022-10-16T02:33:55.221Z,11.80
2022-10-16T02:36:23.364Z,15.23
2022-10-16T02:38:55.259Z,13.73
2022-10-16T02:41:24.734Z,13.52
2022-10-16T02:43:51.385Z,12.90
2022-10-16T02:46:19.880Z,15.10
2022-10-16T02:48:46.496Z,13.85
2022-10-16T02:51:13.230Z,12.57
2022-10-16T02:53:39.887Z,12.05
2022-10-16T02:56:07.226Z,10.70
2022-10-16T02:58:33.966Z,10.60
2022-10-16T03:01:00.696Z,12.95
2022-10-16T03:03:27.401Z,9.13
2022-10-16T03:05:54.117Z,11.02
2022-10-16T03:08:24.477Z,10.15
2022-10-16T03:10:52.635Z,10.00
2022-10-16T03:13:21.389Z,10.45
2022-10-16T03:15:48.772Z,8.38
2022-10-16T03:18:16.078Z,7.38
2022-10-16T03:20:44.695Z,9.68
2022-10-16T03:23:11.536Z,14.45
2022-10-16T03:25:38.731Z,7.00
2022-10-16T03:28:05.582Z,9.30
2022-10-16T03:30:32.631Z,8.35
2022-10-16T03:32:59.406Z,7.75
2022-10-16T03:35:26.317Z,7.13
2022-10-16T03:37:58.814Z,10.18
2022-10-16T03:40:25.504Z,11.40
2022-10-16T03:42:58.291Z,8.57
2022-10-16T03:45:26.536Z,7.03
2022-10-16T03:47:56.055Z,7.03
2022-10-16T03:50:22.927Z,9.50
2022-10-16T03:52:49.599Z,12.40
2022-10-16T03:55:16.229Z,8.13
2022-10-16T03:57:45.943Z,7.57
2022-10-16T04:00:14.142Z,5.72
2022-10-16T04:02:41.291Z,6.32
2022-10-16T04:05:08.755Z,6.43
2022-10-16T04:07:40.757Z,9.07
2022-10-16T04:10:08.160Z,5.00
2022-10-16T04:12:34.888Z,6.65
2022-10-16T04:15:05.079Z,6.10
2022-10-16T04:17:31.809Z,8.85
2022-10-16T04:19:58.374Z,7.60
2022-10-16T04:22:25.025Z,9.70
2022-10-16T04:24:53.206Z,8.85
2022-10-16T04:27:19.956Z,10.23
2022-10-16T04:29:46.694Z,6.78
2022-10-16T04:32:13.343Z,5.70
2022-10-16T04:34:41.096Z,7.25
2022-10-16T04:37:08.339Z,4.93
2022-10-16T04:39:35.200Z,4.97
2022-10-16T04:42:04.545Z,6.88
2022-10-16T04:44:31.207Z,6.43
2022-10-16T04:46:57.931Z,5.90
2022-10-16T04:49:24.737Z,5.50
2022-10-16T04:51:51.767Z,6.57
2022-10-16T04:54:18.759Z,5.90
2022-10-16T04:56:48.982Z,4.75
2022-10-16T04:59:16.235Z,5.10
2022-10-16T05:01:49.019Z,4.35
2022-10-16T05:04:18.303Z,4.60
2022-10-16T05:06:45.053Z,4.97
2022-10-16T05:09:23.872Z,4.00
2022-10-16T05:11:50.673Z,7.03
2022-10-16T05:14:20.411Z,4.10
2022-10-16T05:16:48.982Z,7.05
2022-10-16T05:19:26.795Z,5.53
2022-10-16T05:21:54.858Z,4.43
2022-10-16T05:24:21.504Z,7.30
2022-10-16T05:26:48.148Z,5.90
2022-10-16T05:29:15.549Z,4.30
2022-10-16T05:31:44.327Z,4.97
2022-10-16T05:34:11.178Z,4.95
2022-10-16T05:36:38.067Z,5.38
2022-10-16T05:39:04.712Z,4.57
2022-10-16T05:41:33.164Z,4.57
2022-10-16T05:44:00.087Z,5.88
2022-10-16T05:46:26.712Z,4.93
2022-10-16T05:48:56.532Z,5.45
2022-10-16T05:51:23.227Z,11.57
2022-10-16T05:53:50.016Z,4.43
2022-10-16T05:56:16.692Z,3.97
2022-10-16T05:58:45.223Z,3.90
2022-10-16T06:01:18.455Z,3.72
2022-10-16T06:03:46.045Z,4.03
2022-10-16T06:06:23.900Z,6.55
2022-10-16T06:08:53.138Z,3.85
2022-10-16T06:11:29.616Z,5.28
2022-10-16T06:14:07.772Z,3.75
2022-10-16T06:16:39.516Z,4.57
2022-10-16T06:19:08.839Z,3.70
2022-10-16T06:21:40.443Z,6.47
2022-10-16T06:24:11.161Z,5.63
2022-10-16T06:26:40.960Z,3.65
2022-10-16T06:29:10.481Z,4.30
2022-10-16T06:31:38.924Z,7.82
2022-10-16T06:34:10.113Z,3.70
2022-10-16T06:36:37.115Z,3.95
2022-10-16T06:39:05.660Z,3.88
2022-10-16T06:41:32.644Z,4.53
2022-10-16T06:43:59.430Z,4.43
2022-10-16T06:46:27.496Z,3.20
2022-10-16T06:48:54.858Z,6.10
2022-10-16T06:51:26.182Z,4.22
2022-10-16T06:54:05.279Z,3.53
2022-10-16T06:56:35.197Z,5.97
2022-10-16T06:59:03.784Z,6.18
2022-10-16T07:01:31.272Z,3.83
2022-10-16T07:04:00.843Z,3.63
2022-10-16T07:06:33.129Z,6.15
2022-10-16T07:09:06.624Z,4.03
2022-10-16T07:11:34.616Z,4.00
2022-10-16T07:14:01.470Z,3.58
2022-10-16T07:16:32.599Z,3.53
2022-10-16T07:19:02.946Z,5.25
2022-10-16T07:21:36.961Z,3.40
2022-10-16T07:24:11.958Z,2.92
2022-10-16T07:26:40.366Z,4.10
2022-10-16T07:29:22.104Z,3.58
2022-10-16T07:31:50.405Z,3.38
2022-10-16T07:34:22.570Z,4.10
2022-10-16T07:36:51.478Z,5.75
2022-10-16T07:39:21.425Z,4.38
2022-10-16T07:41:48.131Z,4.07
2022-10-16T07:44:16.714Z,3.40
2022-10-16T07:46:43.573Z,6.22
2022-10-16T07:49:10.315Z,3.22
2022-10-16T07:51:37.148Z,3.40
2022-10-16T07:54:14.496Z,3.88
2022-10-16T07:57:04.360Z,5.82
2022-10-16T07:59:33.608Z,4.18
2022-10-16T08:02:00.435Z,3.92
2022-10-16T08:04:27.094Z,4.05
2022-10-16T08:06:55.263Z,4.40
2022-10-16T08:09:22.058Z,3.33
2022-10-16T08:11:48.832Z,4.60
2022-10-16T08:14:15.473Z,3.78
2022-10-16T08:16:42.160Z,3.40
2022-10-16T08:19:09.058Z,3.78
2022-10-16T08:21:35.847Z,4.97
2022-10-16T08:24:21.022Z,3.45
2022-10-16T08:26:50.263Z,3.28
2022-10-16T08:29:16.947Z,4.93
2022-10-16T08:31:46.264Z,3.20
2022-10-16T08:34:13.258Z,5.10
2022-10-16T08:36:40.015Z,6.47
2022-10-16T08:39:06.692Z,4.43
2022-10-16T08:42:28.805Z,4.97
2022-10-16T08:45:45.682Z,4.15
2022-10-16T08:48:47.313Z,4.40
2022-10-16T08:51:31.974Z,3.50
2022-10-16T08:54:31.259Z,4.15
2022-10-16T08:57:21.385Z,3.65
2022-10-16T08:59:52.466Z,3.70
2022-10-16T09:02:38.439Z,4.43
2022-10-16T09:05:55.879Z,3.67
2022-10-16T09:09:16.456Z,5.72
2022-10-16T09:12:28.796Z,4.82
2022-10-16T09:16:02.413Z,3.97
2022-10-16T09:19:23.835Z,5.50
2022-10-16T09:21:51.965Z,4.85
2022-10-16T09:24:29.381Z,5.40
2022-10-16T09:27:00.951Z,5.28
2022-10-16T09:29:27.809Z,3.25
2022-10-16T09:32:10.023Z,4.43
2022-10-16T09:34:47.301Z,3.83
2022-10-16T09:37:20.401Z,5.90
2022-10-16T09:39:54.803Z,6.03
2022-10-16T09:42:32.590Z,4.95
2022-10-16T09:44:59.956Z,4.22
2022-10-16T09:47:32.757Z,3.78
2022-10-16T09:50:36.642Z,6.53
2022-10-16T09:53:19.704Z,8.43
2022-10-16T09:55:55.497Z,4.80
2022-10-16T09:58:26.019Z,4.75
2022-10-16T10:00:56.044Z,5.15
2022-10-16T10:03:45.982Z,6.18
2022-10-16T10:06:48.044Z,4.15
2022-10-16T10:09:32.456Z,4.93
2022-10-16T10:12:04.865Z,4.70
2022-10-16T10:14:48.661Z,3.60
2022-10-16T10:17:30.669Z,4.45
2022-10-16T10:20:28.413Z,4.53
2022-10-16T10:22:57.205Z,4.40
2022-10-16T10:25:45.865Z,6.35
2022-10-16T10:28:30.660Z,6.53
2022-10-16T10:31:36.289Z,5.03
2022-10-16T10:35:07.072Z,6.22
2022-10-16T10:38:10.435Z,7.25
2022-10-16T10:41:16.770Z,4.97
2022-10-16T10:44:10.622Z,5.28
2022-10-16T10:47:03.593Z,8.03
2022-10-16T10:49:33.147Z,6.10
2022-10-16T10:52:36.032Z,3.97
2022-10-16T10:55:29.387Z,4.38
2022-10-16T10:58:26.453Z,6.15
2022-10-16T11:01:14.096Z,4.90
2022-10-16T11:04:08.049Z,4.45
2022-10-16T11:09:19.340Z,7.22
2022-10-16T11:12:09.038Z,5.03
2022-10-16T11:15:06.526Z,6.22
2022-10-16T11:17:46.775Z,9.20
2022-10-16T11:20:26.290Z,3.33
2022-10-16T11:23:27.989Z,3.40
2022-10-16T11:26:03.289Z,3.90
2022-10-16T11:28:51.449Z,4.32
2022-10-16T11:32:07.916Z,4.40
2022-10-16T11:34:59.932Z,6.05
2022-10-16T11:37:48.260Z,6.13
2022-10-16T11:40:36.250Z,3.85
2022-10-16T11:43:26.038Z,6.03
2022-10-16T11:46:11.892Z,6.63
2022-10-16T11:48:55.028Z,6.88
2022-10-16T11:51:39.298Z,7.28
2022-10-16T11:54:42.669Z,3.03
2022-10-16T11:57:25.665Z,5.32
2022-10-16T12:00:06.514Z,5.40
2022-10-16T12:03:13.553Z,7.30
2022-10-16T12:06:33.455Z,5.25
2022-10-16T12:09:05.390Z,8.40
2022-10-16T12:11:40.226Z,5.43
2022-10-16T12:14:13.105Z,5.25
2022-10-16T12:16:59.348Z,6.03
2022-10-16T12:19:30.713Z,3.17
2022-10-16T12:22:03.158Z,5.88
2022-10-16T12:24:35.529Z,5.22
2022-10-16T12:27:04.744Z,5.03
2022-10-16T12:29:36.967Z,4.47
2022-10-16T12:32:46.845Z,3.92
2022-10-16T12:35:37.772Z,3.72
2022-10-16T12:38:53.026Z,5.30
2022-10-16T12:44:04.449Z,4.50
2022-10-16T12:46:31.127Z,4.95
2022-10-16T12:49:38.182Z,7.97
2022-10-16T12:52:37.816Z,4.85
2022-10-16T12:55:17.449Z,4.95
2022-10-16T12:58:53.063Z,7.45
2022-10-16T13:02:06.339Z,7.95
2022-10-16T13:05:52.005Z,8.80
2022-10-16T13:09:11.016Z,4.55
2022-10-16T13:12:09.526Z,7.03
2022-10-16T13:15:32.863Z,5.75
2022-10-16T13:19:06.561Z,4.05
2022-10-16T13:22:35.861Z,4.68
2022-10-16T13:26:09.824Z,6.63
2022-10-16T13:28:40.792Z,6.32
2022-10-16T13:31:53.232Z,5.57
2022-10-16T13:34:51.616Z,8.38
2022-10-16T13:37:26.645Z,3.72
2022-10-16T13:40:29.216Z,3.25
2022-10-16T13:43:03.840Z,4.85
2022-10-16T13:45:32.512Z,3.65
2022-10-16T13:48:13.509Z,5.18
2022-10-16T13:50:40.249Z,4.13
2022-10-16T13:53:27.963Z,6.95
2022-10-16T13:55:54.767Z,6.28
2022-10-16T13:58:24.167Z,4.25
2022-10-16T14:01:17.115Z,5.45
2022-10-16T14:03:53.905Z,4.10
2022-10-16T14:06:23.690Z,6.82
2022-10-16T14:09:11.229Z,4.68
2022-10-16T14:11:59.128Z,3.85
2022-10-16T14:23:51.837Z,8.13
2022-10-16T14:26:26.685Z,6.85
2022-10-16T14:29:19.894Z,5.57
2022-10-16T14:32:26.092Z,6.70
2022-10-16T14:34:56.503Z,6.70
2022-10-16T14:37:31.348Z,7.53
2022-10-16T14:39:58.589Z,8.07
2022-10-16T14:42:26.938Z,5.90
2022-10-16T14:44:57.993Z,4.13
2022-10-16T14:47:28.340Z,9.68
2022-10-16T14:50:01.429Z,6.85
2022-10-16T14:52:28.270Z,5.38
2022-10-16T14:54:57.484Z,4.30
2022-10-16T14:57:33.824Z,4.78
2022-10-16T15:00:01.084Z,8.75
2022-10-16T15:02:40.427Z,7.60
2022-10-16T15:05:23.292Z,5.15
2022-10-16T15:07:57.512Z,5.22
2022-10-16T15:10:32.740Z,7.28
2022-10-16T15:13:02.780Z,3.58
2022-10-16T15:15:43.216Z,5.25
2022-10-16T15:18:10.078Z,4.68
2022-10-16T15:20:40.150Z,7.75
2022-10-16T15:23:36.475Z,3.55
2022-10-16T15:26:09.464Z,7.22
2022-10-16T15:28:37.139Z,5.38
2022-10-16T15:31:06.568Z,4.97
2022-10-16T15:33:38.871Z,6.05
2022-10-16T15:36:08.116Z,7.22
2022-10-16T15:38:35.415Z,4.13
2022-10-16T15:41:02.366Z,6.35
2022-10-16T15:43:35.337Z,5.38
2022-10-16T15:46:12.763Z,4.90
2022-10-16T15:48:40.963Z,7.70
2022-10-16T15:51:10.880Z,10.23
2022-10-16T15:53:37.706Z,5.85
2022-10-16T15:56:08.250Z,6.25
2022-10-16T15:58:36.016Z,7.45
2022-10-16T16:01:05.087Z,6.40
2022-10-16T16:03:35.997Z,5.40
2022-10-16T16:06:24.710Z,8.13
2022-10-16T16:08:55.489Z,6.38
2022-10-16T16:11:26.830Z,7.57
2022-10-16T16:13:55.633Z,8.48
2022-10-16T16:16:25.942Z,9.90
2022-10-16T16:32:27.700Z,12.27
2022-10-16T17:10:36.921Z,8.98
2022-10-16T17:26:51.720Z,12.38
2022-10-16T17:29:25.349Z,9.88
2022-10-16T17:31:55.171Z,8.80
2022-10-16T17:34:29.170Z,15.43
2022-10-16T17:36:55.861Z,10.38
2022-10-16T17:39:27.860Z,15.43
2022-10-16T17:41:55.729Z,14.55
2022-10-16T17:44:22.562Z,11.52
2022-10-16T17:46:56.331Z,12.93
2022-10-16T17:51:54.018Z,17.38
2022-10-16T17:54:21.650Z,11.32
2022-10-16T17:56:51.510Z,5.57
2022-10-16T17:59:41.446Z,11.20
2022-10-16T18:04:53.280Z,13.20
2022-10-16T18:07:20.129Z,9.07
2022-10-16T18:10:10.804Z,11.80
2022-10-16T19:23:11.690Z,10.80
2022-10-16T20:47:18.733Z,18.30
2022-10-16T20:52:34.163Z,18.70
2022-10-16T20:55:02.282Z,15.90
2022-10-16T20:57:29.398Z,18.95
2022-10-16T20:59:56.512Z,20.98
2022-10-16T21:02:27.295Z,15.85
2022-10-16T21:04:56.380Z,17.88
2022-10-16T21:07:23.083Z,12.57
2022-10-16T21:09:49.971Z,11.88
2022-10-16T21:12:16.592Z,12.88
2022-10-16T21:15:02.483Z,20.52
2022-10-16T21:17:32.403Z,17.58
2022-10-16T21:19:59.052Z,16.20
2022-10-16T21:22:31.721Z,15.60
2022-10-16T21:24:58.381Z,20.45
2022-10-16T21:27:25.402Z,12.88
2022-10-16T21:29:56.857Z,17.30
2022-10-16T21:32:23.653Z,12.15
2022-10-16T21:34:50.404Z,13.80
2022-10-16T21:37:17.061Z,17.40
2022-10-16T21:39:43.843Z,9.82
2022-10-16T21:42:10.575Z,21.90
2022-10-16T21:44:38.826Z,15.60
2022-10-16T21:47:05.671Z,25.80
2022-10-16T21:49:32.391Z,18.60
2022-10-16T21:51:59.074Z,21.52
2022-10-16T21:54:31.840Z,16.27
2022-10-16T21:56:58.637Z,19.38
2022-10-16T21:59:25.429Z,16.80
2022-10-16T22:01:55.647Z,20.13
2022-10-16T22:04:25.065Z,19.10
2022-10-16T22:06:51.802Z,20.55
2022-10-16T22:09:18.502Z,15.27
2022-10-16T22:11:50.266Z,15.32
2022-10-16T22:14:21.815Z,12.95
2022-10-16T22:16:50.292Z,16.67
2022-10-16T22:19:25.178Z,10.05
2022-10-16T22:21:57.192Z,18.10
2022-10-16T22:24:24.844Z,16.73
2022-10-16T22:26:51.623Z,12.65
2022-10-16T22:29:18.743Z,16.48
2022-10-16T22:31:53.232Z,12.65
2022-10-16T22:34:23.626Z,13.25
2022-10-16T22:36:53.144Z,12.00
2022-10-16T22:39:19.825Z,13.80
2022-10-16T22:41:46.579Z,17.00
2022-10-16T22:44:13.950Z,13.43
2022-10-16T22:46:45.953Z,15.75
2022-10-16T22:49:17.452Z,10.35
2022-10-16T22:51:44.678Z,15.65
2022-10-16T22:54:13.661Z,10.15
2022-10-16T22:56:40.678Z,13.30
2022-10-16T22:59:09.862Z,15.82
2022-10-16T23:01:43.968Z,12.68
2022-10-16T23:04:10.602Z,11.77
2022-10-16T23:06:39.880Z,10.50
2022-10-16T23:09:06.968Z,13.35
2022-10-16T23:11:33.816Z,14.98
2022-10-16T23:14:00.662Z,9.93
2022-10-16T23:16:27.410Z,16.27
2022-10-16T23:18:59.003Z,15.95
2022-10-16T23:21:30.290Z,16.98
2022-10-16T23:23:57.046Z,15.38
2022-10-16T23:26:27.211Z,15.50
2022-10-16T23:28:58.454Z,17.35
2022-10-16T23:31:26.697Z,15.70
2022-10-16T23:33:59.776Z,22.65
2022-10-16T23:36:28.830Z,11.80
2022-10-16T23:38:56.017Z,15.43
2022-10-16T23:41:23.015Z,14.48
2022-10-16T23:43:51.357Z,14.20
2022-10-16T23:46:18.545Z,9.25
2022-10-16T23:48:45.644Z,15.40
2022-10-16T23:51:16.196Z,12.65
2022-10-16T23:53:44.093Z,17.80
2022-10-16T23:56:14.678Z,14.23
2022-10-16T23:58:42.287Z,15.23
